sensor_id;sensor_type;location;lat;lon;timestamp;pressure;altitude;pressure_sealevel;temperature;humidity
63090;BME280;49174;43.198;27.824;2023-05-09T00:01:36;102173.88;;;11.68;100.00
63090;BME280;49174;43.198;27.824;2023-05-09T00:04:03;102182.63;;;11.70;100.00
63090;BME280;49174;43.198;27.824;2023-05-09T00:06:29;102180.63;;;11.72;100.00
63090;BME280;49174;43.198;27.824;2023-05-09T00:08:54;102163.91;;;11.68;100.00
63090;BME280;49174;43.198;27.824;2023-05-09T00:11:21;102166.06;;;11.73;100.00
63090;BME280;49174;43.198;27.824;2023-05-09T00:13:47;102168.63;;;11.74;100.00
63090;BME280;49174;43.198;27.824;2023-05-09T00:16:13;102166.75;;;11.75;100.00
63090;BME280;49174;43.198;27.824;2023-05-09T00:18:40;102163.34;;;11.73;100.00
63090;BME280;49174;43.198;27.824;2023-05-09T00:21:07;102165.56;;;11.77;100.00
63090;BME280;49174;43.198;27.824;2023-05-09T00:23:34;102169.31;;;11.76;100.00
63090;BME280;49174;43.198;27.824;2023-05-09T00:25:59;102167.44;;;11.77;100.00
63090;BME280;49174;43.198;27.824;2023-05-09T00:28:26;102179.44;;;11.74;100.00
63090;BME280;49174;43.198;27.824;2023-05-09T00:30:52;102175.69;;;11.75;100.00
63090;BME280;49174;43.198;27.824;2023-05-09T00:33:18;102177.56;;;11.75;100.00
63090;BME280;49174;43.198;27.824;2023-05-09T00:35:44;102179.94;;;11.78;100.00
63090;BME280;49174;43.198;27.824;2023-05-09T00:38:09;102178.94;;;11.79;100.00
63090;BME280;49174;43.198;27.824;2023-05-09T00:40:35;102179.59;;;11.81;100.00
63090;BME280;49174;43.198;27.824;2023-05-09T00:43:00;102182.13;;;11.82;100.00
63090;BME280;49174;43.198;27.824;2023-05-09T00:45:26;102188.72;;;11.80;100.00
63090;BME280;49174;43.198;27.824;2023-05-09T00:47:52;102187.69;;;11.81;100.00
63090;BME280;49174;43.198;27.824;2023-05-09T00:50:17;102195.66;;;11.82;100.00
63090;BME280;49174;43.198;27.824;2023-05-09T00:52:43;102194.97;;;11.80;100.00
63090;BME280;49174;43.198;27.824;2023-05-09T00:55:09;102190.94;;;11.76;100.00
63090;BME280;49174;43.198;27.824;2023-05-09T00:57:35;102196.34;;;11.76;100.00
63090;BME280;49174;43.198;27.824;2023-05-09T01:00:01;102197.53;;;11.74;100.00
63090;BME280;49174;43.198;27.824;2023-05-09T01:02:29;102195.66;;;11.74;100.00
63090;BME280;49174;43.198;27.824;2023-05-09T01:04:55;102198.19;;;11.76;100.00
63090;BME280;49174;43.198;27.824;2023-05-09T01:07:31;102192.25;;;11.72;100.00
63090;BME280;49174;43.198;27.824;2023-05-09T01:17:58;102191.09;;;11.67;100.00
63090;BME280;49174;43.198;27.824;2023-05-09T01:20:50;102190.09;;;11.68;100.00
63090;BME280;49174;43.198;27.824;2023-05-09T01:26:24;102184.00;;;11.57;100.00
63090;BME280;49174;43.198;27.824;2023-05-09T01:31:43;102190.56;;;11.55;100.00
63090;BME280;49174;43.198;27.824;2023-05-09T01:34:10;102185.34;;;11.53;100.00
63090;BME280;49174;43.198;27.824;2023-05-09T01:36:37;102192.44;;;11.54;100.00
63090;BME280;49174;43.198;27.824;2023-05-09T01:39:05;102187.38;;;11.51;99.95
63090;BME280;49174;43.198;27.824;2023-05-09T01:41:33;102192.94;;;11.50;99.68
63090;BME280;49174;43.198;27.824;2023-05-09T01:44:02;102185.00;;;11.48;99.45
63090;BME280;49174;43.198;27.824;2023-05-09T01:46:29;102192.44;;;11.46;100.00
63090;BME280;49174;43.198;27.824;2023-05-09T01:48:56;102187.03;;;11.46;99.18
63090;BME280;49174;43.198;27.824;2023-05-09T01:51:23;102191.06;;;11.42;99.86
63090;BME280;49174;43.198;27.824;2023-05-09T01:53:50;102184.66;;;11.35;99.08
63090;BME280;49174;43.198;27.824;2023-05-09T01:56:17;102177.56;;;11.34;99.92
63090;BME280;49174;43.198;27.824;2023-05-09T01:58:45;102188.03;;;11.37;100.00
63090;BME280;49174;43.198;27.824;2023-05-09T02:01:13;102185.50;;;11.35;100.00
63090;BME280;49174;43.198;27.824;2023-05-09T02:03:39;102187.69;;;11.32;100.00
63090;BME280;49174;43.198;27.824;2023-05-09T02:06:06;102190.56;;;11.38;100.00
63090;BME280;49174;43.198;27.824;2023-05-09T02:08:32;102190.88;;;11.35;100.00
63090;BME280;49174;43.198;27.824;2023-05-09T02:10:58;102186.97;;;11.22;100.00
63090;BME280;49174;43.198;27.824;2023-05-09T02:13:24;102187.66;;;11.24;100.00
63090;BME280;49174;43.198;27.824;2023-05-09T02:15:50;102185.66;;;11.26;99.09
63090;BME280;49174;43.198;27.824;2023-05-09T02:18:16;102187.66;;;11.24;99.03
63090;BME280;49174;43.198;27.824;2023-05-09T02:20:43;102184.97;;;11.32;100.00
63090;BME280;49174;43.198;27.824;2023-05-09T02:23:08;102187.50;;;11.33;100.00
63090;BME280;49174;43.198;27.824;2023-05-09T02:25:34;102191.91;;;11.34;100.00
63090;BME280;49174;43.198;27.824;2023-05-09T02:28:00;102192.91;;;11.33;98.65
63090;BME280;49174;43.198;27.824;2023-05-09T02:30:30;102191.72;;;11.28;98.75
63090;BME280;49174;43.198;27.824;2023-05-09T02:33:01;102194.97;;;11.31;100.00
63090;BME280;49174;43.198;27.824;2023-05-09T02:35:27;102197.81;;;11.30;100.00
63090;BME280;49174;43.198;27.824;2023-05-09T02:37:54;102204.59;;;11.34;100.00
63090;BME280;49174;43.198;27.824;2023-05-09T02:40:20;102198.66;;;11.30;100.00
63090;BME280;49174;43.198;27.824;2023-05-09T02:42:46;102198.66;;;11.30;100.00
63090;BME280;49174;43.198;27.824;2023-05-09T02:45:12;102201.19;;;11.32;100.00
63090;BME280;49174;43.198;27.824;2023-05-09T02:47:38;102206.28;;;11.35;96.84
63090;BME280;49174;43.198;27.824;2023-05-09T02:50:04;102205.56;;;11.33;97.89
63090;BME280;49174;43.198;27.824;2023-05-09T02:52:30;102206.72;;;11.22;98.67
63090;BME280;49174;43.198;27.824;2023-05-09T02:54:57;102196.44;;;11.17;99.39
63090;BME280;49174;43.198;27.824;2023-05-09T02:57:22;102201.31;;;11.14;98.58
63090;BME280;49174;43.198;27.824;2023-05-09T02:59:48;102213.63;;;11.08;100.00
63090;BME280;49174;43.198;27.824;2023-05-09T03:02:13;102203.84;;;11.07;99.66
63090;BME280;49174;43.198;27.824;2023-05-09T03:04:39;102210.59;;;11.11;99.09
63090;BME280;49174;43.198;27.824;2023-05-09T03:07:05;102208.91;;;11.10;100.00
63090;BME280;49174;43.198;27.824;2023-05-09T03:09:30;102214.66;;;11.15;97.44
63090;BME280;49174;43.198;27.824;2023-05-09T03:11:56;102215.50;;;11.16;97.03
63090;BME280;49174;43.198;27.824;2023-05-09T03:14:21;102219.88;;;11.09;98.85
63090;BME280;49174;43.198;27.824;2023-05-09T03:16:47;102217.19;;;11.09;99.52
63090;BME280;49174;43.198;27.824;2023-05-09T03:19:12;102219.88;;;11.09;99.33
63090;BME280;49174;43.198;27.824;2023-05-09T03:21:38;102227.34;;;11.15;99.02
63090;BME280;49174;43.198;27.824;2023-05-09T03:24:05;102231.69;;;11.08;99.37
63090;BME280;49174;43.198;27.824;2023-05-09T03:26:31;102234.56;;;11.06;100.00
63090;BME280;49174;43.198;27.824;2023-05-09T03:28:56;102228.13;;;10.99;99.52
63090;BME280;49174;43.198;27.824;2023-05-09T03:31:22;102238.09;;;11.07;100.00
63090;BME280;49174;43.198;27.824;2023-05-09T03:33:47;102236.94;;;11.09;100.00
63090;BME280;49174;43.198;27.824;2023-05-09T03:36:13;102236.25;;;11.07;99.91
63090;BME280;49174;43.198;27.824;2023-05-09T03:38:38;102243.44;;;10.90;100.00
63090;BME280;49174;43.198;27.824;2023-05-09T03:41:04;102246.97;;;10.91;100.00
63090;BME280;49174;43.198;27.824;2023-05-09T03:43:30;102244.00;;;11.02;100.00
63090;BME280;49174;43.198;27.824;2023-05-09T03:45:55;102245.03;;;11.09;99.45
63090;BME280;49174;43.198;27.824;2023-05-09T03:48:20;102249.28;;;11.12;98.99
63090;BME280;49174;43.198;27.824;2023-05-09T03:50:46;102240.81;;;11.07;99.55
63090;BME280;49174;43.198;27.824;2023-05-09T03:53:11;102245.69;;;11.03;98.92
63090;BME280;49174;43.198;27.824;2023-05-09T03:55:37;102249.44;;;11.10;100.00
63090;BME280;49174;43.198;27.824;2023-05-09T03:58:03;102252.66;;;11.22;100.00
63090;BME280;49174;43.198;27.824;2023-05-09T04:00:28;102248.78;;;11.25;100.00
63090;BME280;49174;43.198;27.824;2023-05-09T04:02:54;102255.56;;;11.29;100.00
63090;BME280;49174;43.198;27.824;2023-05-09T04:05:19;102254.88;;;11.27;100.00
63090;BME280;49174;43.198;27.824;2023-05-09T04:07:45;102261.47;;;11.32;100.00
63090;BME280;49174;43.198;27.824;2023-05-09T04:10:11;102262.34;;;11.41;100.00
63090;BME280;49174;43.198;27.824;2023-05-09T04:12:36;102265.06;;;11.41;100.00
63090;BME280;49174;43.198;27.824;2023-05-09T04:15:02;102262.31;;;11.33;99.45
63090;BME280;49174;43.198;27.824;2023-05-09T04:17:28;102261.81;;;11.29;100.00
63090;BME280;49174;43.198;27.824;2023-05-09T04:19:53;102263.16;;;11.33;100.00
63090;BME280;49174;43.198;27.824;2023-05-09T04:22:18;102272.06;;;11.09;98.98
63090;BME280;49174;43.198;27.824;2023-05-09T04:24:44;102269.16;;;11.11;100.00
63090;BME280;49174;43.198;27.824;2023-05-09T04:27:09;102267.56;;;11.26;100.00
63090;BME280;49174;43.198;27.824;2023-05-09T04:29:35;102268.41;;;11.35;100.00
63090;BME280;49174;43.198;27.824;2023-05-09T04:32:01;102272.47;;;11.39;100.00
63090;BME280;49174;43.198;27.824;2023-05-09T04:34:27;102273.03;;;11.51;100.00
63090;BME280;49174;43.198;27.824;2023-05-09T04:36:56;102291.44;;;11.55;100.00
63090;BME280;49174;43.198;27.824;2023-05-09T04:39:22;102288.59;;;11.65;100.00
63090;BME280;49174;43.198;27.824;2023-05-09T04:41:47;102292.97;;;11.66;100.00
63090;BME280;49174;43.198;27.824;2023-05-09T04:44:25;102295.19;;;11.71;99.57
63090;BME280;49174;43.198;27.824;2023-05-09T04:46:51;102304.31;;;11.78;99.62
63090;BME280;49174;43.198;27.824;2023-05-09T04:49:19;102296.41;;;11.84;99.78
63090;BME280;49174;43.198;27.824;2023-05-09T04:51:44;102294.72;;;11.92;98.76
63090;BME280;49174;43.198;27.824;2023-05-09T04:54:10;102299.47;;;11.98;97.80
63090;BME280;49174;43.198;27.824;2023-05-09T04:56:36;102293.75;;;12.01;97.12
63090;BME280;49174;43.198;27.824;2023-05-09T04:59:01;102294.41;;;12.11;97.21
63090;BME280;49174;43.198;27.824;2023-05-09T05:01:27;102294.06;;;12.14;95.19
63090;BME280;49174;43.198;27.824;2023-05-09T05:03:52;102296.63;;;12.16;95.14
63090;BME280;49174;43.198;27.824;2023-05-09T05:06:18;102294.94;;;12.15;95.40
63090;BME280;49174;43.198;27.824;2023-05-09T05:08:43;102291.19;;;12.16;95.65
63090;BME280;49174;43.198;27.824;2023-05-09T05:11:09;102286.13;;;12.21;96.81
63090;BME280;49174;43.198;27.824;2023-05-09T05:13:34;102296.09;;;12.28;98.10
63090;BME280;49174;43.198;27.824;2023-05-09T05:16:00;102293.38;;;12.37;97.93
63090;BME280;49174;43.198;27.824;2023-05-09T05:18:25;102290.84;;;12.43;97.53
63090;BME280;49174;43.198;27.824;2023-05-09T05:20:51;102293.34;;;12.53;95.35
63090;BME280;49174;43.198;27.824;2023-05-09T05:23:16;102296.75;;;12.55;93.64
63090;BME280;49174;43.198;27.824;2023-05-09T05:25:42;102297.22;;;12.59;94.55
63090;BME280;49174;43.198;27.824;2023-05-09T05:28:08;102297.75;;;12.62;94.09
63090;BME280;49174;43.198;27.824;2023-05-09T05:30:33;102295.88;;;12.71;94.69
63090;BME280;49174;43.198;27.824;2023-05-09T05:32:59;102296.38;;;12.74;93.24
63090;BME280;49174;43.198;27.824;2023-05-09T05:35:24;102300.25;;;12.72;93.76
63090;BME280;49174;43.198;27.824;2023-05-09T05:37:52;102305.50;;;12.82;93.86
63090;BME280;49174;43.198;27.824;2023-05-09T05:40:17;102302.25;;;12.86;94.29
63090;BME280;49174;43.198;27.824;2023-05-09T05:42:43;102306.66;;;12.95;94.90
63090;BME280;49174;43.198;27.824;2023-05-09T05:45:10;102297.09;;;13.08;94.69
63090;BME280;49174;43.198;27.824;2023-05-09T05:47:36;102298.03;;;13.23;93.93
63090;BME280;49174;43.198;27.824;2023-05-09T05:50:03;102292.56;;;13.39;93.45
63090;BME280;49174;43.198;27.824;2023-05-09T05:52:31;102295.50;;;13.61;91.22
63090;BME280;49174;43.198;27.824;2023-05-09T05:54:56;102292.69;;;13.77;91.10
63090;BME280;49174;43.198;27.824;2023-05-09T05:57:22;102291.91;;;13.92;89.96
63090;BME280;49174;43.198;27.824;2023-05-09T05:59:49;102299.44;;;14.04;87.78
63090;BME280;49174;43.198;27.824;2023-05-09T06:02:15;102298.25;;;14.07;85.32
63090;BME280;49174;43.198;27.824;2023-05-09T06:04:41;102293.09;;;14.12;86.03
63090;BME280;49174;43.198;27.824;2023-05-09T06:07:06;102297.16;;;14.16;86.23
63090;BME280;49174;43.198;27.824;2023-05-09T06:09:32;102299.13;;;14.22;86.38
63090;BME280;49174;43.198;27.824;2023-05-09T06:11:57;102302.59;;;14.31;86.32
63090;BME280;49174;43.198;27.824;2023-05-09T06:14:23;102295.97;;;14.48;87.34
63090;BME280;49174;43.198;27.824;2023-05-09T06:16:48;102300.91;;;14.68;82.24
63090;BME280;49174;43.198;27.824;2023-05-09T06:19:14;102301.78;;;14.68;83.04
63090;BME280;49174;43.198;27.824;2023-05-09T06:21:39;102296.13;;;14.70;82.52
63090;BME280;49174;43.198;27.824;2023-05-09T06:24:05;102291.75;;;14.84;82.45
63090;BME280;49174;43.198;27.824;2023-05-09T06:26:31;102286.03;;;15.08;81.23
63090;BME280;49174;43.198;27.824;2023-05-09T06:28:57;102284.00;;;15.32;78.40
63090;BME280;49174;43.198;27.824;2023-05-09T06:31:22;102279.94;;;15.57;78.84
63090;BME280;49174;43.198;27.824;2023-05-09T06:33:48;102295.38;;;15.72;78.07
63090;BME280;49174;43.198;27.824;2023-05-09T06:36:13;102301.72;;;15.79;77.67
63090;BME280;49174;43.198;27.824;2023-05-09T06:38:40;102299.78;;;15.73;75.19
63090;BME280;49174;43.198;27.824;2023-05-09T06:41:05;102301.47;;;15.74;75.35
63090;BME280;49174;43.198;27.824;2023-05-09T06:43:31;102308.59;;;15.75;76.14
63090;BME280;49174;43.198;27.824;2023-05-09T06:45:56;102303.72;;;15.70;76.65
63090;BME280;49174;43.198;27.824;2023-05-09T06:48:22;102302.72;;;15.71;76.79
63090;BME280;49174;43.198;27.824;2023-05-09T06:50:52;102306.06;;;15.73;76.42
63090;BME280;49174;43.198;27.824;2023-05-09T06:53:17;102298.00;;;15.65;75.12
63090;BME280;49174;43.198;27.824;2023-05-09T06:55:43;102294.25;;;15.66;76.60
63090;BME280;49174;43.198;27.824;2023-05-09T06:58:08;102296.50;;;15.62;76.31
63090;BME280;49174;43.198;27.824;2023-05-09T07:00:35;102294.66;;;15.48;74.02
63090;BME280;49174;43.198;27.824;2023-05-09T07:03:00;102295.81;;;15.39;75.83
63090;BME280;49174;43.198;27.824;2023-05-09T07:05:26;102294.88;;;15.32;76.33
63090;BME280;49174;43.198;27.824;2023-05-09T07:07:51;102297.69;;;15.38;78.24
63090;BME280;49174;43.198;27.824;2023-05-09T07:10:20;102294.59;;;15.41;74.85
63090;BME280;49174;43.198;27.824;2023-05-09T07:12:46;102287.72;;;15.46;76.57
63090;BME280;49174;43.198;27.824;2023-05-09T07:15:12;102292.44;;;15.52;74.79
63090;BME280;49174;43.198;27.824;2023-05-09T07:17:37;102289.09;;;15.56;76.44
63090;BME280;49174;43.198;27.824;2023-05-09T07:20:03;102289.66;;;15.67;79.38
63090;BME280;49174;43.198;27.824;2023-05-09T07:22:29;102287.66;;;15.75;75.98
63090;BME280;49174;43.198;27.824;2023-05-09T07:24:55;102293.00;;;15.83;73.42
63090;BME280;49174;43.198;27.824;2023-05-09T07:27:21;102280.53;;;15.96;72.21
63090;BME280;49174;43.198;27.824;2023-05-09T07:29:46;102287.06;;;16.01;72.47
63090;BME280;49174;43.198;27.824;2023-05-09T07:32:13;102279.44;;;16.12;74.82
63090;BME280;49174;43.198;27.824;2023-05-09T07:34:38;102285.97;;;16.17;72.94
63090;BME280;49174;43.198;27.824;2023-05-09T07:37:04;102285.53;;;16.14;73.60
63090;BME280;49174;43.198;27.824;2023-05-09T07:39:29;102297.03;;;16.16;73.96
63090;BME280;49174;43.198;27.824;2023-05-09T07:41:56;102297.97;;;16.23;74.51
63090;BME280;49174;43.198;27.824;2023-05-09T07:44:22;102298.13;;;16.21;72.38
63090;BME280;49174;43.198;27.824;2023-05-09T07:46:47;102299.97;;;16.14;72.55
63090;BME280;49174;43.198;27.824;2023-05-09T07:49:13;102306.09;;;15.95;70.83
63090;BME280;49174;43.198;27.824;2023-05-09T07:51:38;102309.63;;;15.74;74.07
63090;BME280;49174;43.198;27.824;2023-05-09T07:54:04;102298.28;;;15.70;74.34
63090;BME280;49174;43.198;27.824;2023-05-09T07:56:29;102308.41;;;15.61;74.92
63090;BME280;49174;43.198;27.824;2023-05-09T07:58:58;102312.31;;;15.52;73.63
63090;BME280;49174;43.198;27.824;2023-05-09T08:01:24;102307.44;;;15.48;74.31
63090;BME280;49174;43.198;27.824;2023-05-09T08:03:49;102303.53;;;15.35;74.23
63090;BME280;49174;43.198;27.824;2023-05-09T08:06:15;102307.19;;;15.28;74.60
63090;BME280;49174;43.198;27.824;2023-05-09T08:08:40;102303.53;;;15.20;74.31
63090;BME280;49174;43.198;27.824;2023-05-09T08:11:06;102302.63;;;15.13;74.99
63090;BME280;49174;43.198;27.824;2023-05-09T08:13:36;102299.13;;;15.19;75.65
63090;BME280;49174;43.198;27.824;2023-05-09T08:16:01;102299.69;;;15.30;76.01
63090;BME280;49174;43.198;27.824;2023-05-09T08:18:28;102305.66;;;15.40;74.57
63090;BME280;49174;43.198;27.824;2023-05-09T08:20:53;102290.28;;;15.47;72.87
63090;BME280;49174;43.198;27.824;2023-05-09T08:23:19;102294.53;;;15.56;71.53
63090;BME280;49174;43.198;27.824;2023-05-09T08:25:44;102301.16;;;15.47;69.30
63090;BME280;49174;43.198;27.824;2023-05-09T08:28:10;102298.44;;;15.47;67.92
63090;BME280;49174;43.198;27.824;2023-05-09T08:30:35;102296.69;;;15.61;71.81
63090;BME280;49174;43.198;27.824;2023-05-09T08:33:01;102302.94;;;15.76;69.34
63090;BME280;49174;43.198;27.824;2023-05-09T08:35:26;102295.78;;;15.69;67.99
63090;BME280;49174;43.198;27.824;2023-05-09T08:37:52;102296.44;;;15.56;70.10
63090;BME280;49174;43.198;27.824;2023-05-09T08:40:18;102294.53;;;15.56;70.90
63090;BME280;49174;43.198;27.824;2023-05-09T08:42:47;102297.00;;;15.51;70.55
63090;BME280;49174;43.198;27.824;2023-05-09T08:45:13;102294.09;;;15.53;72.67
63090;BME280;49174;43.198;27.824;2023-05-09T08:47:42;102304.53;;;15.49;69.78
63090;BME280;49174;43.198;27.824;2023-05-09T08:50:08;102300.66;;;15.58;71.96
63090;BME280;49174;43.198;27.824;2023-05-09T08:52:35;102300.44;;;15.60;69.66
63090;BME280;49174;43.198;27.824;2023-05-09T08:55:02;102303.56;;;15.72;72.42
63090;BME280;49174;43.198;27.824;2023-05-09T08:57:32;102292.34;;;15.81;70.12
63090;BME280;49174;43.198;27.824;2023-05-09T09:00:01;102294.53;;;15.93;69.57
63090;BME280;49174;43.198;27.824;2023-05-09T09:02:31;102285.66;;;16.05;69.57
63090;BME280;49174;43.198;27.824;2023-05-09T09:04:56;102283.25;;;16.17;68.81
63090;BME280;49174;43.198;27.824;2023-05-09T09:07:22;102283.16;;;16.32;68.79
63090;BME280;49174;43.198;27.824;2023-05-09T09:09:50;102285.88;;;16.32;67.69
63090;BME280;49174;43.198;27.824;2023-05-09T09:12:17;102278.72;;;16.24;65.33
63090;BME280;49174;43.198;27.824;2023-05-09T09:14:48;102277.25;;;16.28;66.37
63090;BME280;49174;43.198;27.824;2023-05-09T09:17:19;102269.63;;;16.45;69.65
63090;BME280;49174;43.198;27.824;2023-05-09T09:19:48;102269.09;;;16.57;65.60
63090;BME280;49174;43.198;27.824;2023-05-09T09:22:15;102271.78;;;16.78;67.36
63090;BME280;49174;43.198;27.824;2023-05-09T09:24:42;102269.06;;;16.78;62.26
63090;BME280;49174;43.198;27.824;2023-05-09T09:27:08;102268.50;;;16.61;64.05
63090;BME280;49174;43.198;27.824;2023-05-09T09:29:34;102273.38;;;16.72;65.17
63090;BME280;49174;43.198;27.824;2023-05-09T09:32:03;102264.94;;;16.95;64.80
63090;BME280;49174;43.198;27.824;2023-05-09T09:34:29;102272.38;;;17.15;62.03
63090;BME280;49174;43.198;27.824;2023-05-09T09:36:55;102271.38;;;17.29;65.77
63090;BME280;49174;43.198;27.824;2023-05-09T09:39:20;102272.44;;;17.28;62.55
63090;BME280;49174;43.198;27.824;2023-05-09T09:41:47;102279.50;;;16.74;65.83
63090;BME280;49174;43.198;27.824;2023-05-09T09:44:14;102279.63;;;16.10;69.62
63090;BME280;49174;43.198;27.824;2023-05-09T09:46:48;102284.59;;;15.63;73.38
63090;BME280;49174;43.198;27.824;2023-05-09T09:49:21;102288.94;;;14.77;76.70
63090;BME280;49174;43.198;27.824;2023-05-09T09:51:53;102284.94;;;14.50;76.98
63090;BME280;49174;43.198;27.824;2023-05-09T09:54:20;102283.81;;;14.44;78.61
63090;BME280;49174;43.198;27.824;2023-05-09T09:56:48;102276.59;;;14.37;78.22
63090;BME280;49174;43.198;27.824;2023-05-09T09:59:16;102281.72;;;14.69;78.72
63090;BME280;49174;43.198;27.824;2023-05-09T10:01:53;102286.88;;;14.64;79.34
63090;BME280;49174;43.198;27.824;2023-05-09T10:04:19;102279.56;;;14.27;80.40
63090;BME280;49174;43.198;27.824;2023-05-09T10:06:55;102275.69;;;13.83;82.34
63090;BME280;49174;43.198;27.824;2023-05-09T10:09:22;102281.53;;;13.49;84.03
63090;BME280;49174;43.198;27.824;2023-05-09T10:11:49;102278.84;;;13.41;84.67
63090;BME280;49174;43.198;27.824;2023-05-09T10:14:18;102291.78;;;13.23;86.15
63090;BME280;49174;43.198;27.824;2023-05-09T10:16:46;102293.47;;;13.32;86.22
63090;BME280;49174;43.198;27.824;2023-05-09T10:19:17;102297.03;;;13.32;86.99
63090;BME280;49174;43.198;27.824;2023-05-09T10:21:43;102296.00;;;13.25;86.40
63090;BME280;49174;43.198;27.824;2023-05-09T10:24:09;102296.00;;;12.86;88.48
63090;BME280;49174;43.198;27.824;2023-05-09T10:26:37;102298.56;;;12.79;90.04
63090;BME280;49174;43.198;27.824;2023-05-09T10:29:09;102298.53;;;12.87;90.27
63090;BME280;49174;43.198;27.824;2023-05-09T10:31:38;102295.28;;;12.92;90.45
63090;BME280;49174;43.198;27.824;2023-05-09T10:34:08;102295.69;;;12.72;89.64
63090;BME280;49174;43.198;27.824;2023-05-09T10:36:34;102288.91;;;12.77;90.99
63090;BME280;49174;43.198;27.824;2023-05-09T10:39:00;102297.34;;;12.90;91.35
63090;BME280;49174;43.198;27.824;2023-05-09T10:41:26;102302.78;;;12.82;90.23
63090;BME280;49174;43.198;27.824;2023-05-09T10:43:55;102297.38;;;12.82;92.12
63090;BME280;49174;43.198;27.824;2023-05-09T10:46:22;102290.94;;;12.74;91.70
63090;BME280;49174;43.198;27.824;2023-05-09T10:48:48;102295.47;;;12.90;92.01
63090;BME280;49174;43.198;27.824;2023-05-09T10:51:14;102285.16;;;12.86;90.29
63090;BME280;49174;43.198;27.824;2023-05-09T10:53:46;102287.34;;;12.90;89.53
63090;BME280;49174;43.198;27.824;2023-05-09T10:56:28;102277.69;;;12.96;90.57
63090;BME280;49174;43.198;27.824;2023-05-09T10:58:56;102286.91;;;13.18;89.43
63090;BME280;49174;43.198;27.824;2023-05-09T11:01:35;102292.31;;;13.26;89.14
63090;BME280;49174;43.198;27.824;2023-05-09T11:04:13;102297.09;;;13.08;89.40
63090;BME280;49174;43.198;27.824;2023-05-09T11:17:02;102289.84;;;13.39;90.06
63090;BME280;49174;43.198;27.824;2023-05-09T11:22:18;102297.78;;;13.49;88.22
63090;BME280;49174;43.198;27.824;2023-05-09T11:24:48;102296.91;;;13.57;88.48
63090;BME280;49174;43.198;27.824;2023-05-09T11:27:21;102305.81;;;13.66;87.10
63090;BME280;49174;43.198;27.824;2023-05-09T11:32:17;102312.91;;;13.44;85.93
63090;BME280;49174;43.198;27.824;2023-05-09T11:34:43;102313.81;;;13.28;86.11
63090;BME280;49174;43.198;27.824;2023-05-09T11:37:14;102317.00;;;13.23;86.92
63090;BME280;49174;43.198;27.824;2023-05-09T11:40:00;102306.84;;;13.25;87.64
63090;BME280;49174;43.198;27.824;2023-05-09T11:42:29;102307.34;;;13.29;87.79
63090;BME280;49174;43.198;27.824;2023-05-09T11:44:56;102311.31;;;13.18;88.05
63090;BME280;49174;43.198;27.824;2023-05-09T11:47:22;102309.13;;;13.05;90.22
63090;BME280;49174;43.198;27.824;2023-05-09T11:49:48;102305.63;;;12.88;91.34
63090;BME280;49174;43.198;27.824;2023-05-09T11:52:21;102310.75;;;12.75;91.11
63090;BME280;49174;43.198;27.824;2023-05-09T11:54:46;102304.50;;;12.66;89.73
63090;BME280;49174;43.198;27.824;2023-05-09T11:57:12;102307.72;;;12.62;90.76
63090;BME280;49174;43.198;27.824;2023-05-09T11:59:42;102310.78;;;12.50;91.32
63090;BME280;49174;43.198;27.824;2023-05-09T12:02:09;102311.09;;;12.64;91.67
63090;BME280;49174;43.198;27.824;2023-05-09T12:04:34;102299.19;;;12.89;90.85
63090;BME280;49174;43.198;27.824;2023-05-09T12:07:00;102298.56;;;12.79;91.77
63090;BME280;49174;43.198;27.824;2023-05-09T12:09:33;102300.94;;;12.74;92.35
63090;BME280;49174;43.198;27.824;2023-05-09T12:12:00;102294.84;;;12.64;92.89
63090;BME280;49174;43.198;27.824;2023-05-09T12:14:33;102292.81;;;12.74;93.67
63090;BME280;49174;43.198;27.824;2023-05-09T12:16:59;102296.72;;;12.63;92.75
63090;BME280;49174;43.198;27.824;2023-05-09T12:19:26;102296.56;;;12.65;93.19
63090;BME280;49174;43.198;27.824;2023-05-09T12:21:59;102292.59;;;12.84;91.57
63090;BME280;49174;43.198;27.824;2023-05-09T12:24:26;102290.91;;;12.91;92.04
63090;BME280;49174;43.198;27.824;2023-05-09T12:26:53;102291.41;;;12.86;90.98
63090;BME280;49174;43.198;27.824;2023-05-09T12:29:22;102291.03;;;12.97;91.91
63090;BME280;49174;43.198;27.824;2023-05-09T12:31:49;102280.56;;;12.94;91.15
63090;BME280;49174;43.198;27.824;2023-05-09T12:34:15;102280.41;;;12.88;91.48
63090;BME280;49174;43.198;27.824;2023-05-09T12:36:44;102287.69;;;12.87;92.29
63090;BME280;49174;43.198;27.824;2023-05-09T12:39:18;102290.91;;;12.91;90.37
63090;BME280;49174;43.198;27.824;2023-05-09T12:41:50;102286.66;;;12.88;90.68
63090;BME280;49174;43.198;27.824;2023-05-09T12:44:20;102298.00;;;12.92;90.61
63090;BME280;49174;43.198;27.824;2023-05-09T12:47:00;102293.38;;;13.01;90.28
63090;BME280;49174;43.198;27.824;2023-05-09T12:49:26;102287.03;;;12.85;91.43
63090;BME280;49174;43.198;27.824;2023-05-09T12:51:53;102289.50;;;13.03;91.66
63090;BME280;49174;43.198;27.824;2023-05-09T12:54:24;102287.31;;;12.99;91.37
63090;BME280;49174;43.198;27.824;2023-05-09T12:56:51;102281.41;;;12.87;92.67
63090;BME280;49174;43.198;27.824;2023-05-09T12:59:23;102293.50;;;12.76;93.34
63090;BME280;49174;43.198;27.824;2023-05-09T13:01:57;102290.75;;;12.84;93.16
63090;BME280;49174;43.198;27.824;2023-05-09T13:04:25;102299.59;;;12.62;92.15
63090;BME280;49174;43.198;27.824;2023-05-09T13:06:54;102293.00;;;12.64;93.66